»·PEaware :: AAL5221 KSFO-KSAN

AAL5221 :: KSFO-KSAN

FLIGHT INFORMATION

Flight Status: Arrived
Operator:
American Airlines
More flights by this operator :: More flights under this callsign
Pilot: Ruben R. (12247)
Aircraft: AIRBUS A320
(A320)
More flights by this aircraft type
Origin: KSFO San Francisco Intl
United States
Destination: KSAN San Diego Intl-Lindbergh
United States
More flights between these airports :: More routes between these airports
Route: +OFFSH1 MCKEY LAX BAYVU5
File this flight plan on PilotEdge
Remarks: twitch.tv / themach3lounge
Altitude:
(Current/Filed)
35,000ft
Speed:
(Current/Filed)
450kts
Departed: 29-Nov-17 08:51 PM
Arrived: 29-Nov-17 10:09 PM
Distance/Time
Traveled:
387nm/1:18
Distance/Time
To Go:
Arrived

Flight Plot

Page will automatically refresh every two minutes.


Map Options




Map Legend


Flown Route
Filed Route
Departure Airport
Arrival Airport
Navaid (VOR, NDB)
Fix

Horizontal Profiles

Position Reports

Time Latitude Longitude Heading Altitude Ground
Speed
29-Nov-17 20:26 37.618308 -122.381954 145 21ft 0kts
29-Nov-17 20:27 37.618308 -122.381954 145 21ft 0kts
29-Nov-17 20:28 37.618308 -122.381954 145 21ft 0kts
29-Nov-17 20:29 37.618308 -122.381954 145 21ft 0kts
29-Nov-17 20:30 37.618308 -122.381954 145 21ft 0kts
29-Nov-17 20:31 37.618308 -122.381954 145 21ft 0kts
29-Nov-17 20:32 37.618308 -122.381954 145 21ft 0kts
29-Nov-17 20:33 37.618308 -122.381954 145 21ft 0kts
29-Nov-17 20:34 37.618308 -122.381954 145 21ft 0kts
29-Nov-17 20:35 37.618308 -122.381954 145 21ft 0kts
29-Nov-17 20:36 37.618308 -122.381954 145 21ft 0kts
29-Nov-17 20:37 37.618308 -122.381954 145 21ft 0kts
29-Nov-17 20:38 37.618344 -122.381986 145 21ft 0kts
29-Nov-17 20:39 37.618566 -122.382564 83 21ft 2kts
29-Nov-17 20:40 37.618295 -122.383063 25 21ft 0kts
29-Nov-17 20:41 37.618992 -122.382338 39 21ft 0kts
29-Nov-17 20:42 37.618992 -122.382337 39 21ft 0kts
29-Nov-17 20:43 37.618992 -122.382337 39 21ft 0kts
29-Nov-17 20:44 37.618992 -122.382337 39 21ft 0kts
29-Nov-17 20:45 37.618992 -122.382337 39 21ft 0kts
29-Nov-17 20:46 37.618992 -122.382337 39 21ft 0kts
29-Nov-17 20:47 37.618992 -122.382337 39 21ft 0kts
29-Nov-17 20:48 37.618993 -122.382337 39 21ft 0kts
29-Nov-17 20:49 37.618993 -122.382337 39 21ft 0kts
29-Nov-17 20:50 37.619090 -122.382271 24 21ft 3kts
29-Nov-17 20:51 37.617804 -122.379491 168 21ft 18kts
29-Nov-17 20:52 37.612361 -122.382506 208 21ft 25kts
29-Nov-17 20:53 37.609361 -122.383386 114 21ft 0kts
29-Nov-17 20:54 37.609361 -122.383386 114 21ft 0kts
29-Nov-17 20:55 37.609377 -122.381980 30 21ft 19kts
29-Nov-17 20:56 37.638248 -122.363117 23 1041ft 199kts
29-Nov-17 20:57 37.694658 -122.364388 338 4256ft 235kts
29-Nov-17 20:58 37.705571 -122.439336 229 7542ft 297kts
29-Nov-17 20:59 37.641935 -122.500460 217 11171ft 312kts
29-Nov-17 21:00 37.563513 -122.569530 217 12986ft 373kts
29-Nov-17 21:01 37.476976 -122.644580 217 15542ft 391kts
29-Nov-17 21:02 37.374201 -122.680634 170 17673ft 424kts
29-Nov-17 21:03 37.259064 -122.649727 171 20448ft 419kts
29-Nov-17 21:04 37.158214 -122.623107 168 23076ft 402kts
29-Nov-17 21:05 37.047108 -122.594086 164 24180ft 426kts
29-Nov-17 21:06 36.927387 -122.560188 154 24721ft 457kts
29-Nov-17 21:07 36.829649 -122.469427 138 26219ft 457kts
29-Nov-17 21:08 36.729871 -122.364231 139 27026ft 481kts
29-Nov-17 21:09 36.632749 -122.262373 140 28120ft 491kts
29-Nov-17 21:10 36.528904 -122.153892 140 29141ft 500kts
29-Nov-17 21:11 36.421956 -122.042574 140 30276ft 503kts
29-Nov-17 21:12 36.333053 -121.950364 140 31132ft 507kts
29-Nov-17 21:13 36.206617 -121.819715 140 32303ft 511kts
29-Nov-17 21:14 36.097330 -121.707244 140 33225ft 515kts
29-Nov-17 21:15 35.986918 -121.594042 139 34107ft 519kts
29-Nov-17 21:16 35.877750 -121.482517 139 35024ft 514kts
29-Nov-17 21:17 35.802821 -121.406209 139 35043ft 513kts
29-Nov-17 21:18 35.703901 -121.305796 140 35046ft 514kts
29-Nov-17 21:19 35.610580 -121.184286 123 35049ft 512kts
29-Nov-17 21:20 35.528530 -121.042876 124 35050ft 513kts
29-Nov-17 21:21 35.433033 -120.880911 124 35051ft 514kts
29-Nov-17 21:22 35.368790 -120.772422 124 35013ft 514kts
29-Nov-17 21:23 35.285928 -120.632988 124 34967ft 513kts
29-Nov-17 21:24 35.202255 -120.492748 124 34967ft 513kts
29-Nov-17 21:25 35.118438 -120.352830 124 34967ft 514kts
29-Nov-17 21:26 35.064676 -120.263359 127 34958ft 518kts
29-Nov-17 21:27 34.985310 -120.131812 132 33009ft 533kts
29-Nov-17 21:28 34.901314 -119.992813 132 31133ft 512kts
29-Nov-17 21:29 34.828957 -119.873682 131 29195ft 499kts
29-Nov-17 21:30 34.749809 -119.743896 130 26535ft 493kts
29-Nov-17 21:31 34.680955 -119.631229 130 24946ft 463kts
29-Nov-17 21:32 34.609748 -119.515057 129 24287ft 410kts
29-Nov-17 21:33 34.546236 -119.411844 129 23950ft 355kts
29-Nov-17 21:34 34.497998 -119.333611 131 23939ft 303kts
29-Nov-17 21:35 34.459295 -119.270967 132 23949ft 256kts
29-Nov-17 21:36 34.414419 -119.200343 134 25190ft 282kts
29-Nov-17 21:37 34.364093 -119.124762 136 25713ft 355kts
29-Nov-17 21:38 34.288319 -119.019599 134 23309ft 483kts
29-Nov-17 21:39 34.213737 -118.894940 117 24009ft 504kts
29-Nov-17 21:40 34.154710 -118.784131 129 23667ft 483kts
29-Nov-17 21:41 34.080020 -118.663709 130 22885ft 468kts
29-Nov-17 21:42 34.008868 -118.550667 128 20979ft 445kts
29-Nov-17 21:43 33.945324 -118.450321 127 18577ft 428kts
29-Nov-17 21:44 33.888738 -118.374960 131 17971ft 432kts
29-Nov-17 21:45 33.834069 -118.304791 132 17968ft 430kts
29-Nov-17 21:46 33.770341 -118.223179 132 17293ft 423kts
29-Nov-17 21:47 33.696888 -118.129355 132 17179ft 419kts
29-Nov-17 21:48 33.618915 -118.030059 132 17149ft 419kts
29-Nov-17 21:49 33.540315 -117.930240 132 17156ft 419kts
29-Nov-17 21:50 33.461334 -117.830217 132 17063ft 396kts
29-Nov-17 21:51 33.390445 -117.740377 132 14856ft 378kts
29-Nov-17 21:52 33.324368 -117.653121 134 13966ft 320kts
29-Nov-17 21:53 33.268246 -117.585924 135 13962ft 255kts
29-Nov-17 21:54 33.215320 -117.536741 143 13973ft 282kts
29-Nov-17 21:55 33.137859 -117.469759 146 13925ft 402kts
29-Nov-17 21:56 33.049682 -117.399713 146 13937ft 361kts
29-Nov-17 21:57 32.990362 -117.325830 122 13627ft 346kts
29-Nov-17 21:58 32.965382 -117.274028 122 11659ft 363kts
29-Nov-17 21:59 32.928874 -117.194011 122 9394ft 359kts
29-Nov-17 22:00 32.900298 -117.129367 122 8296ft 291kts
29-Nov-17 22:01 32.877419 -117.078691 122 7620ft 257kts
29-Nov-17 22:02 32.845894 -117.012741 122 6957ft 229kts
29-Nov-17 22:03 32.818352 -116.959251 122 6371ft 210kts
29-Nov-17 22:04 32.785523 -116.901040 122 5040ft 216kts
29-Nov-17 22:05 32.752324 -116.852485 158 4964ft 183kts
29-Nov-17 22:06 32.699692 -116.865617 192 4016ft 175kts
29-Nov-17 22:07 32.671585 -116.898672 252 4017ft 155kts
29-Nov-17 22:08 32.675909 -116.950216 286 4013ft 187kts
29-Nov-17 22:09 32.688149 -117.005303 285 3186ft 186kts
29-Nov-17 22:10 32.699447 -117.050640 286 2175ft 141kts
29-Nov-17 22:11 32.710609 -117.097355 287 1644ft 142kts
29-Nov-17 22:12 32.720710 -117.137478 286 943ft 132kts
29-Nov-17 22:13 32.730257 -117.176326 286 122ft 131kts
29-Nov-17 22:14 32.734207 -117.194987 250 22ft 10kts
29-Nov-17 22:15 32.734417 -117.197537 286 21ft 22kts
29-Nov-17 22:16 32.735781 -117.203812 261 19ft 16kts
29-Nov-17 22:17 32.733181 -117.205346 109 19ft 8kts
29-Nov-17 22:18 32.732912 -117.204592 110 19ft 0kts

Navigation Log

Ident Type
1. KSFO Airport
2. SENZY Fix
3. SEGUL Fix
4. CYPRS Fix
5. MCKEY Fix
6. LAX Navaid
7. OTISS Fix
8. HUBRD Fix
9. BAYVU Fix
10. LCOVE Fix
11. STEPN Fix
12. KLOMN Fix
13. NADDO Fix
14. KSAN Airport